TVF6306 LFPO-DTTJ
Flight info
| Callsign | TVF6306 |
|---|---|
| Flight time | 2h 25m |
| Altitude | 37000 |
| Route | ERIXU DCT ETAMO DCT ADEKA DCT MOKDI DCT MEN DCT AMLIR DCT FJR DCT DIVKO DCT JUSQO DCT FIRRA DCT NAFOQ DCT SALMA UG6 DIMAO UZ147 KIRAS A856 TINAP |
| Aircraft | B738/M-SDE2E3FGHIRWXY/LB1 |
Departure
| Time | 2026-04-26 09:31 |
|---|---|
| Airport | Paris-Orly Airport (LFPO) |
Arrival
| Time | 2026-04-26 11:56 |
|---|---|
| Airport | Djerba Zarzis International Airport (DTTJ) |
| Time | Latitude | Longitude | Altitude | Speed | Heading |
|---|---|---|---|---|---|
| 2026-04-26 09:00 | 48.72967 | 2.35677 | 292 ft | 0 kts | 121° |
| 2026-04-26 09:20 | 48.72978 | 2.35650 | 297 ft | 4 kts | 121° |
| 2026-04-26 09:20 | 48.72993 | 2.35616 | 301 ft | 4 kts | 125° |
| 2026-04-26 09:21 | 48.73009 | 2.35586 | 301 ft | 4 kts | 148° |
| 2026-04-26 09:21 | 48.73024 | 2.35578 | 300 ft | 2 kts | 231° |
| 2026-04-26 09:21 | 48.73025 | 2.35581 | 300 ft | 1 kts | 234° |
| 2026-04-26 09:24 | 48.73023 | 2.35576 | 295 ft | 2 kts | 234° |
| 2026-04-26 09:24 | 48.73009 | 2.35554 | 297 ft | 4 kts | 218° |
| 2026-04-26 09:24 | 48.72978 | 2.35526 | 297 ft | 7 kts | 211° |
| 2026-04-26 09:25 | 48.72934 | 2.35520 | 299 ft | 7 kts | 159° |
| 2026-04-26 09:25 | 48.72882 | 2.35547 | 298 ft | 9 kts | 162° |
| 2026-04-26 09:25 | 48.72815 | 2.35579 | 299 ft | 11 kts | 162° |
| 2026-04-26 09:25 | 48.72732 | 2.35610 | 297 ft | 13 kts | 167° |
| 2026-04-26 09:26 | 48.72647 | 2.35645 | 299 ft | 11 kts | 163° |
| 2026-04-26 09:26 | 48.72582 | 2.35672 | 297 ft | 10 kts | 165° |
| 2026-04-26 09:26 | 48.72518 | 2.35695 | 298 ft | 9 kts | 172° |
| 2026-04-26 09:26 | 48.72461 | 2.35655 | 297 ft | 10 kts | 228° |
| 2026-04-26 09:27 | 48.72459 | 2.35652 | 300 ft | 0 kts | 228° |
| 2026-04-26 09:27 | 48.72451 | 2.35640 | 297 ft | 3 kts | 223° |
| 2026-04-26 09:27 | 48.72441 | 2.35626 | 299 ft | 0 kts | 223° |
| 2026-04-26 09:27 | 48.72440 | 2.35625 | 299 ft | 1 kts | 222° |
| 2026-04-26 09:28 | 48.72431 | 2.35622 | 297 ft | 4 kts | 197° |
| 2026-04-26 09:28 | 48.72383 | 2.35629 | 300 ft | 9 kts | 167° |
| 2026-04-26 09:28 | 48.72316 | 2.35630 | 297 ft | 10 kts | 198° |
| 2026-04-26 09:28 | 48.72252 | 2.35602 | 297 ft | 10 kts | 186° |
| 2026-04-26 09:29 | 48.72184 | 2.35618 | 299 ft | 10 kts | 166° |
| 2026-04-26 09:29 | 48.72117 | 2.35646 | 296 ft | 10 kts | 162° |
| 2026-04-26 09:29 | 48.72055 | 2.35700 | 298 ft | 10 kts | 139° |
| 2026-04-26 09:29 | 48.72016 | 2.35788 | 299 ft | 10 kts | 121° |
| 2026-04-26 09:30 | 48.71982 | 2.35881 | 297 ft | 10 kts | 117° |
| 2026-04-26 09:30 | 48.71967 | 2.35981 | 297 ft | 10 kts | 90° |
| 2026-04-26 09:30 | 48.71977 | 2.36050 | 298 ft | 5 kts | 77° |
| 2026-04-26 09:30 | 48.71986 | 2.36103 | 301 ft | 9 kts | 73° |
| 2026-04-26 09:31 | 48.72111 | 2.36774 | 298 ft | 124 kts | 73° |
| 2026-04-26 09:31 | 48.72403 | 2.38437 | 742 ft | 186 kts | 73° |
| 2026-04-26 09:31 | 48.72782 | 2.40503 | 1810 ft | 217 kts | 74° |
| 2026-04-26 09:31 | 48.73213 | 2.42792 | 3011 ft | 239 kts | 75° |
| 2026-04-26 09:32 | 48.73673 | 2.45277 | 4142 ft | 251 kts | 75° |
| 2026-04-26 09:32 | 48.74118 | 2.47885 | 5333 ft | 258 kts | 81° |
| 2026-04-26 09:32 | 48.74261 | 2.50594 | 6513 ft | 265 kts | 88° |
| 2026-04-26 09:32 | 48.74318 | 2.53427 | 7559 ft | 272 kts | 88° |
| 2026-04-26 09:33 | 48.74261 | 2.56334 | 8670 ft | 279 kts | 102° |
| 2026-04-26 09:33 | 48.73454 | 2.59024 | 9713 ft | 287 kts | 127° |
| 2026-04-26 09:33 | 48.71906 | 2.60988 | 10712 ft | 298 kts | 153° |
| 2026-04-26 09:33 | 48.69834 | 2.61860 | 11150 ft | 327 kts | 177° |
| 2026-04-26 09:34 | 48.67529 | 2.61305 | 11735 ft | 344 kts | 198° |
| 2026-04-26 09:34 | 48.65360 | 2.59740 | 12715 ft | 348 kts | 212° |
| 2026-04-26 09:34 | 48.63367 | 2.57682 | 13145 ft | 345 kts | 217° |
| 2026-04-26 09:34 | 48.61435 | 2.55470 | 13269 ft | 353 kts | 218° |
| 2026-04-26 09:35 | 48.59478 | 2.53213 | 13257 ft | 353 kts | 218° |
| 2026-04-26 09:35 | 48.57517 | 2.51002 | 13261 ft | 350 kts | 217° |
| 2026-04-26 09:35 | 48.55526 | 2.48813 | 13529 ft | 359 kts | 216° |
| 2026-04-26 09:35 | 48.53515 | 2.46643 | 14596 ft | 358 kts | 216° |
| 2026-04-26 09:36 | 48.52146 | 2.45180 | 15304 ft | 359 kts | 216° |
| 2026-04-26 09:36 | 48.49400 | 2.42266 | 16571 ft | 363 kts | 217° |
| 2026-04-26 09:36 | 48.47342 | 2.40091 | 17440 ft | 368 kts | 216° |
| 2026-04-26 09:36 | 48.45230 | 2.37867 | 18323 ft | 373 kts | 216° |
| 2026-04-26 09:37 | 48.43085 | 2.35613 | 19102 ft | 378 kts | 216° |
| 2026-04-26 09:37 | 48.41653 | 2.34109 | 19608 ft | 381 kts | 216° |
| 2026-04-26 09:37 | 48.39469 | 2.31817 | 20377 ft | 384 kts | 216° |
| 2026-04-26 09:37 | 48.37264 | 2.29503 | 21126 ft | 389 kts | 217° |
| 2026-04-26 09:38 | 48.35033 | 2.27165 | 21853 ft | 393 kts | 217° |
| 2026-04-26 09:38 | 48.32776 | 2.24804 | 22559 ft | 397 kts | 217° |
| 2026-04-26 09:38 | 48.30371 | 2.22702 | 23250 ft | 405 kts | 204° |
| 2026-04-26 09:38 | 48.27618 | 2.21648 | 23919 ft | 413 kts | 188° |
| 2026-04-26 09:39 | 48.24725 | 2.21776 | 24486 ft | 420 kts | 173° |
| 2026-04-26 09:39 | 48.21832 | 2.22513 | 25070 ft | 424 kts | 171° |
| 2026-04-26 09:39 | 48.18911 | 2.23326 | 25606 ft | 428 kts | 171° |
| 2026-04-26 09:39 | 48.15963 | 2.24122 | 26134 ft | 432 kts | 172° |
| 2026-04-26 09:40 | 48.12992 | 2.24872 | 26695 ft | 435 kts | 172° |
| 2026-04-26 09:40 | 48.09990 | 2.25601 | 27209 ft | 439 kts | 172° |
| 2026-04-26 09:40 | 48.06951 | 2.26209 | 27718 ft | 442 kts | 177° |
| 2026-04-26 09:40 | 48.03880 | 2.26488 | 28238 ft | 444 kts | 179° |
| 2026-04-26 09:41 | 48.00775 | 2.26663 | 28705 ft | 448 kts | 180° |
| 2026-04-26 09:41 | 47.97655 | 2.26805 | 29192 ft | 451 kts | 180° |
| 2026-04-26 09:41 | 47.94508 | 2.26951 | 29635 ft | 455 kts | 180° |
| 2026-04-26 09:41 | 47.91371 | 2.27112 | 30084 ft | 458 kts | 179° |
| 2026-04-26 09:42 | 47.88139 | 2.27294 | 30492 ft | 461 kts | 179° |
| 2026-04-26 09:42 | 47.84918 | 2.27489 | 30852 ft | 464 kts | 179° |
| 2026-04-26 09:42 | 47.81730 | 2.27689 | 31264 ft | 465 kts | 179° |
| 2026-04-26 09:42 | 47.78487 | 2.27896 | 31615 ft | 468 kts | 179° |
| 2026-04-26 09:43 | 47.75218 | 2.28105 | 31909 ft | 472 kts | 179° |
| 2026-04-26 09:43 | 47.71926 | 2.28316 | 32253 ft | 474 kts | 179° |
| 2026-04-26 09:43 | 47.68625 | 2.28527 | 32601 ft | 476 kts | 179° |
| 2026-04-26 09:43 | 47.65315 | 2.28737 | 33019 ft | 475 kts | 179° |
| 2026-04-26 09:44 | 47.62009 | 2.28947 | 33500 ft | 474 kts | 179° |
| 2026-04-26 09:44 | 47.58721 | 2.29155 | 33975 ft | 472 kts | 179° |
| 2026-04-26 09:44 | 47.55440 | 2.29362 | 34369 ft | 472 kts | 179° |
| 2026-04-26 09:44 | 47.52152 | 2.29569 | 34709 ft | 473 kts | 179° |
| 2026-04-26 09:45 | 47.48868 | 2.29775 | 35075 ft | 472 kts | 179° |
| 2026-04-26 09:45 | 47.45591 | 2.29981 | 35467 ft | 471 kts | 179° |
| 2026-04-26 09:45 | 47.42319 | 2.30186 | 35822 ft | 471 kts | 179° |
| 2026-04-26 09:45 | 47.39046 | 2.30391 | 36155 ft | 471 kts | 179° |
| 2026-04-26 09:46 | 47.35774 | 2.30595 | 36507 ft | 470 kts | 179° |
| 2026-04-26 09:46 | 47.32506 | 2.30799 | 36880 ft | 469 kts | 179° |
| 2026-04-26 09:46 | 47.29245 | 2.31003 | 37258 ft | 468 kts | 179° |
| 2026-04-26 09:46 | 47.26036 | 2.31203 | 37610 ft | 468 kts | 179° |
| 2026-04-26 09:47 | 47.22784 | 2.31405 | 37956 ft | 468 kts | 179° |
| 2026-04-26 09:47 | 47.19533 | 2.31607 | 38284 ft | 467 kts | 179° |
| 2026-04-26 09:47 | 47.16279 | 2.31809 | 38616 ft | 467 kts | 179° |
| 2026-04-26 09:47 | 47.13033 | 2.32010 | 38938 ft | 466 kts | 179° |
| 2026-04-26 09:48 | 47.09792 | 2.32211 | 39202 ft | 466 kts | 179° |
| 2026-04-26 09:48 | 47.06554 | 2.32411 | 39474 ft | 465 kts | 179° |
| 2026-04-26 09:48 | 47.03321 | 2.32611 | 39722 ft | 465 kts | 179° |
| 2026-04-26 09:48 | 47.00087 | 2.32811 | 39978 ft | 465 kts | 179° |
| 2026-04-26 09:49 | 46.96856 | 2.33010 | 40210 ft | 464 kts | 179° |
| 2026-04-26 09:49 | 46.93629 | 2.33209 | 40451 ft | 464 kts | 179° |
| 2026-04-26 09:49 | 46.90407 | 2.33407 | 40704 ft | 463 kts | 179° |
| 2026-04-26 09:49 | 46.87194 | 2.33753 | 40936 ft | 464 kts | 172° |
| 2026-04-26 09:50 | 46.84094 | 2.34817 | 41142 ft | 465 kts | 162° |
| 2026-04-26 09:50 | 46.78286 | 2.38996 | 41218 ft | 468 kts | 147° |
| 2026-04-26 09:51 | 46.72878 | 2.44255 | 41208 ft | 466 kts | 146° |
| 2026-04-26 09:51 | 46.67492 | 2.49490 | 41205 ft | 463 kts | 147° |
| 2026-04-26 09:52 | 46.62112 | 2.54629 | 41203 ft | 461 kts | 147° |
| 2026-04-26 09:52 | 46.54048 | 2.62252 | 41203 ft | 460 kts | 147° |
| 2026-04-26 09:53 | 46.48720 | 2.67271 | 41201 ft | 460 kts | 147° |
| 2026-04-26 09:53 | 46.43351 | 2.72320 | 41201 ft | 460 kts | 147° |
| 2026-04-26 09:54 | 46.37969 | 2.77369 | 41206 ft | 461 kts | 147° |
| 2026-04-26 09:54 | 46.32578 | 2.82415 | 41203 ft | 462 kts | 147° |
| 2026-04-26 09:55 | 46.27165 | 2.87469 | 41200 ft | 463 kts | 147° |
| 2026-04-26 09:55 | 46.21744 | 2.92520 | 41206 ft | 464 kts | 148° |
| 2026-04-26 09:56 | 46.16315 | 2.97565 | 41205 ft | 464 kts | 148° |
| 2026-04-26 09:56 | 46.10875 | 3.02610 | 41203 ft | 465 kts | 148° |
| 2026-04-26 09:57 | 46.05465 | 3.07615 | 41206 ft | 465 kts | 148° |
| 2026-04-26 09:57 | 46.00023 | 3.12639 | 41212 ft | 464 kts | 148° |
| 2026-04-26 09:58 | 45.94304 | 3.16819 | 41210 ft | 460 kts | 164° |
| 2026-04-26 09:58 | 45.88022 | 3.18109 | 41221 ft | 456 kts | 181° |
| 2026-04-26 09:59 | 45.81691 | 3.17951 | 41209 ft | 455 kts | 182° |
| 2026-04-26 09:59 | 45.75369 | 3.17773 | 41210 ft | 454 kts | 182° |
| 2026-04-26 10:00 | 45.69054 | 3.17655 | 41211 ft | 454 kts | 182° |
| 2026-04-26 10:00 | 45.62738 | 3.17570 | 41198 ft | 453 kts | 182° |
| 2026-04-26 10:01 | 45.56432 | 3.17490 | 41204 ft | 453 kts | 182° |
| 2026-04-26 10:01 | 45.50129 | 3.17408 | 41195 ft | 453 kts | 182° |
| 2026-04-26 10:02 | 45.43824 | 3.17326 | 41181 ft | 452 kts | 182° |
| 2026-04-26 10:02 | 45.37534 | 3.17244 | 41203 ft | 452 kts | 182° |
| 2026-04-26 10:03 | 45.31234 | 3.17161 | 41197 ft | 453 kts | 182° |
| 2026-04-26 10:03 | 45.24933 | 3.17079 | 41196 ft | 453 kts | 182° |
| 2026-04-26 10:04 | 45.18651 | 3.16997 | 41191 ft | 455 kts | 182° |
| 2026-04-26 10:04 | 45.12307 | 3.16914 | 41198 ft | 456 kts | 182° |
| 2026-04-26 10:05 | 45.05937 | 3.16833 | 41191 ft | 458 kts | 182° |
| 2026-04-26 10:05 | 44.99558 | 3.16750 | 41182 ft | 458 kts | 182° |
| 2026-04-26 10:06 | 44.93182 | 3.16666 | 41184 ft | 458 kts | 182° |
| 2026-04-26 10:06 | 44.86800 | 3.16574 | 41187 ft | 458 kts | 182° |
| 2026-04-26 10:07 | 44.80479 | 3.16482 | 41183 ft | 457 kts | 182° |
| 2026-04-26 10:07 | 44.74128 | 3.16391 | 41180 ft | 455 kts | 182° |
| 2026-04-26 10:08 | 44.67797 | 3.16300 | 41179 ft | 454 kts | 182° |
| 2026-04-26 10:08 | 44.61479 | 3.16210 | 41174 ft | 453 kts | 182° |
| 2026-04-26 10:09 | 44.55176 | 3.16273 | 41174 ft | 452 kts | 181° |
| 2026-04-26 10:09 | 44.48891 | 3.16426 | 41174 ft | 451 kts | 179° |
| 2026-04-26 10:10 | 44.45774 | 3.16994 | 41164 ft | 454 kts | 168° |
| 2026-04-26 10:10 | 44.42762 | 3.18343 | 41167 ft | 455 kts | 158° |
| 2026-04-26 10:10 | 44.37315 | 3.22882 | 41171 ft | 457 kts | 147° |
| 2026-04-26 10:11 | 44.32103 | 3.27967 | 41168 ft | 457 kts | 146° |
| 2026-04-26 10:11 | 44.26918 | 3.32980 | 41169 ft | 456 kts | 147° |
| 2026-04-26 10:12 | 44.21672 | 3.37968 | 41163 ft | 456 kts | 147° |
| 2026-04-26 10:12 | 44.16412 | 3.42929 | 41150 ft | 457 kts | 147° |
| 2026-04-26 10:13 | 44.11147 | 3.47881 | 41159 ft | 457 kts | 147° |
| 2026-04-26 10:13 | 44.05876 | 3.52830 | 41149 ft | 457 kts | 147° |
| 2026-04-26 10:14 | 44.00599 | 3.57775 | 41141 ft | 458 kts | 147° |
| 2026-04-26 10:14 | 43.95314 | 3.62717 | 41135 ft | 458 kts | 147° |
| 2026-04-26 10:15 | 43.90026 | 3.67652 | 41137 ft | 458 kts | 147° |
| 2026-04-26 10:15 | 43.84728 | 3.72585 | 41131 ft | 458 kts | 147° |
| 2026-04-26 10:16 | 43.79426 | 3.77511 | 41129 ft | 459 kts | 147° |
| 2026-04-26 10:16 | 43.74122 | 3.82429 | 41124 ft | 459 kts | 147° |
| 2026-04-26 10:17 | 43.68842 | 3.87315 | 41134 ft | 460 kts | 147° |
| 2026-04-26 10:17 | 43.63520 | 3.92229 | 41129 ft | 460 kts | 147° |
| 2026-04-26 10:18 | 43.58240 | 3.97219 | 41125 ft | 460 kts | 142° |
| 2026-04-26 10:18 | 43.53759 | 4.03507 | 41133 ft | 461 kts | 132° |
| 2026-04-26 10:19 | 43.49559 | 4.10180 | 41129 ft | 460 kts | 132° |
| 2026-04-26 10:19 | 43.45343 | 4.16815 | 41128 ft | 459 kts | 132° |
| 2026-04-26 10:20 | 43.41822 | 4.22282 | 41126 ft | 459 kts | 133° |
| 2026-04-26 10:20 | 43.36865 | 4.29926 | 41128 ft | 458 kts | 133° |
| 2026-04-26 10:21 | 43.32646 | 4.36415 | 41127 ft | 457 kts | 133° |
| 2026-04-26 10:21 | 43.28406 | 4.42924 | 41132 ft | 457 kts | 133° |
| 2026-04-26 10:22 | 43.24161 | 4.49428 | 41128 ft | 457 kts | 133° |
| 2026-04-26 10:22 | 43.19916 | 4.55917 | 41131 ft | 457 kts | 133° |
| 2026-04-26 10:23 | 43.15664 | 4.62404 | 41132 ft | 457 kts | 133° |
| 2026-04-26 10:23 | 43.11407 | 4.68884 | 41134 ft | 458 kts | 133° |
| 2026-04-26 10:24 | 43.07006 | 4.75170 | 41126 ft | 457 kts | 142° |
| 2026-04-26 10:24 | 43.01634 | 4.79578 | 41132 ft | 453 kts | 160° |
| 2026-04-26 10:25 | 42.95665 | 4.82250 | 41134 ft | 452 kts | 165° |
| 2026-04-26 10:25 | 42.89656 | 4.84816 | 41138 ft | 452 kts | 164° |
| 2026-04-26 10:26 | 42.83658 | 4.87457 | 41138 ft | 453 kts | 163° |
| 2026-04-26 10:26 | 42.77659 | 4.90125 | 41142 ft | 453 kts | 163° |
| 2026-04-26 10:27 | 42.72663 | 4.92307 | 41140 ft | 453 kts | 166° |
| 2026-04-26 10:27 | 42.65513 | 4.94677 | 41142 ft | 452 kts | 169° |
| 2026-04-26 10:28 | 42.60412 | 4.96226 | 41141 ft | 452 kts | 169° |
| 2026-04-26 10:28 | 42.53275 | 4.98430 | 41141 ft | 452 kts | 168° |
| 2026-04-26 10:29 | 42.48136 | 5.00046 | 41141 ft | 452 kts | 168° |
| 2026-04-26 10:29 | 42.42013 | 5.01980 | 41140 ft | 452 kts | 168° |
| 2026-04-26 10:30 | 42.35892 | 5.03912 | 41140 ft | 451 kts | 168° |
| 2026-04-26 10:30 | 42.29818 | 5.05822 | 41140 ft | 451 kts | 168° |
| 2026-04-26 10:31 | 42.23704 | 5.07742 | 41141 ft | 451 kts | 168° |
| 2026-04-26 10:31 | 42.17595 | 5.09655 | 41142 ft | 450 kts | 168° |
| 2026-04-26 10:32 | 42.11491 | 5.11563 | 41140 ft | 450 kts | 168° |
| 2026-04-26 10:32 | 42.05383 | 5.13469 | 41143 ft | 450 kts | 168° |
| 2026-04-26 10:33 | 41.99280 | 5.15369 | 41143 ft | 450 kts | 168° |
| 2026-04-26 10:33 | 41.93184 | 5.17264 | 41144 ft | 449 kts | 168° |
| 2026-04-26 10:34 | 41.87090 | 5.19154 | 41141 ft | 449 kts | 168° |
| 2026-04-26 10:34 | 41.81042 | 5.21026 | 41145 ft | 449 kts | 168° |
| 2026-04-26 10:35 | 41.74956 | 5.22907 | 41148 ft | 449 kts | 168° |
| 2026-04-26 10:35 | 41.68865 | 5.24786 | 41151 ft | 449 kts | 168° |
| 2026-04-26 10:36 | 41.62812 | 5.26820 | 41149 ft | 449 kts | 163° |
| 2026-04-26 10:36 | 41.56926 | 5.29626 | 41150 ft | 450 kts | 161° |
| 2026-04-26 10:37 | 41.51066 | 5.32555 | 41161 ft | 449 kts | 161° |
| 2026-04-26 10:37 | 41.45199 | 5.35432 | 41166 ft | 449 kts | 161° |
| 2026-04-26 10:38 | 41.39312 | 5.38268 | 41156 ft | 449 kts | 161° |
| 2026-04-26 10:38 | 41.33467 | 5.41064 | 41158 ft | 449 kts | 161° |
| 2026-04-26 10:39 | 41.27572 | 5.43878 | 41168 ft | 449 kts | 161° |
| 2026-04-26 10:39 | 41.21685 | 5.46684 | 41175 ft | 449 kts | 161° |
| 2026-04-26 10:40 | 41.15942 | 5.49417 | 41161 ft | 449 kts | 161° |
| 2026-04-26 10:40 | 41.10061 | 5.52211 | 41170 ft | 449 kts | 161° |
| 2026-04-26 10:41 | 41.04178 | 5.55001 | 41175 ft | 449 kts | 161° |
| 2026-04-26 10:41 | 40.98295 | 5.57785 | 41168 ft | 449 kts | 161° |
| 2026-04-26 10:42 | 40.92419 | 5.60561 | 41172 ft | 449 kts | 161° |
| 2026-04-26 10:42 | 40.86571 | 5.63318 | 41172 ft | 448 kts | 161° |
| 2026-04-26 10:43 | 40.80693 | 5.66085 | 41179 ft | 448 kts | 161° |
| 2026-04-26 10:43 | 40.74813 | 5.68846 | 41175 ft | 449 kts | 161° |
| 2026-04-26 10:44 | 40.68927 | 5.71606 | 41173 ft | 449 kts | 161° |
| 2026-04-26 10:44 | 40.63043 | 5.74360 | 41177 ft | 449 kts | 161° |
| 2026-04-26 10:45 | 40.57156 | 5.77110 | 41176 ft | 449 kts | 161° |
| 2026-04-26 10:45 | 40.51264 | 5.79858 | 41185 ft | 449 kts | 161° |
| 2026-04-26 10:46 | 40.45413 | 5.82581 | 41186 ft | 449 kts | 161° |
| 2026-04-26 10:46 | 40.39665 | 5.85807 | 41191 ft | 450 kts | 155° |
| 2026-04-26 10:47 | 40.34039 | 5.89416 | 41182 ft | 450 kts | 154° |
| 2026-04-26 10:47 | 40.28413 | 5.93022 | 41179 ft | 450 kts | 155° |
| 2026-04-26 10:48 | 40.22764 | 5.96582 | 41174 ft | 450 kts | 155° |
| 2026-04-26 10:48 | 40.17104 | 6.00114 | 41179 ft | 451 kts | 155° |
| 2026-04-26 10:49 | 40.11444 | 6.03634 | 41181 ft | 451 kts | 155° |
| 2026-04-26 10:49 | 40.05775 | 6.07154 | 41178 ft | 451 kts | 155° |
| 2026-04-26 10:50 | 40.01066 | 6.10073 | 41178 ft | 451 kts | 155° |
| 2026-04-26 10:50 | 39.94443 | 6.14173 | 41178 ft | 451 kts | 155° |
| 2026-04-26 10:51 | 39.85931 | 6.19430 | 41183 ft | 451 kts | 155° |
| 2026-04-26 10:52 | 39.80285 | 6.22908 | 41181 ft | 451 kts | 155° |
| 2026-04-26 10:52 | 39.74612 | 6.26397 | 41177 ft | 451 kts | 155° |
| 2026-04-26 10:53 | 39.68932 | 6.29883 | 41172 ft | 451 kts | 155° |
| 2026-04-26 10:53 | 39.63245 | 6.33368 | 41181 ft | 452 kts | 155° |
| 2026-04-26 10:54 | 39.54716 | 6.38581 | 41180 ft | 452 kts | 155° |
| 2026-04-26 10:54 | 39.49025 | 6.42052 | 41177 ft | 452 kts | 155° |
| 2026-04-26 10:55 | 39.43340 | 6.45514 | 41179 ft | 452 kts | 155° |
| 2026-04-26 10:55 | 39.37687 | 6.48949 | 41179 ft | 452 kts | 155° |
| 2026-04-26 10:56 | 39.31998 | 6.52400 | 41177 ft | 452 kts | 155° |
| 2026-04-26 10:56 | 39.26302 | 6.55849 | 41176 ft | 452 kts | 155° |
| 2026-04-26 10:57 | 39.20605 | 6.59293 | 41177 ft | 452 kts | 155° |
| 2026-04-26 10:57 | 39.14905 | 6.62732 | 41179 ft | 452 kts | 155° |
| 2026-04-26 10:58 | 39.09204 | 6.66167 | 41177 ft | 452 kts | 156° |
| 2026-04-26 10:58 | 39.03493 | 6.69602 | 41175 ft | 453 kts | 156° |
| 2026-04-26 10:59 | 38.97769 | 6.72985 | 41174 ft | 452 kts | 158° |
| 2026-04-26 10:59 | 38.91934 | 6.76040 | 41175 ft | 452 kts | 159° |
| 2026-04-26 11:00 | 38.86081 | 6.79007 | 41178 ft | 452 kts | 159° |
| 2026-04-26 11:00 | 38.80274 | 6.81985 | 41176 ft | 452 kts | 159° |
| 2026-04-26 11:01 | 38.74439 | 6.85005 | 41174 ft | 453 kts | 159° |
| 2026-04-26 11:01 | 38.68602 | 6.88033 | 41180 ft | 453 kts | 159° |
| 2026-04-26 11:02 | 38.62758 | 6.91060 | 41173 ft | 453 kts | 159° |
| 2026-04-26 11:02 | 38.56916 | 6.94079 | 41172 ft | 453 kts | 159° |
| 2026-04-26 11:03 | 38.51076 | 6.97091 | 41171 ft | 453 kts | 159° |
| 2026-04-26 11:03 | 38.45230 | 7.00101 | 41167 ft | 453 kts | 159° |
| 2026-04-26 11:04 | 38.39393 | 7.03102 | 41171 ft | 451 kts | 161° |
| 2026-04-26 11:04 | 38.33592 | 7.06077 | 41172 ft | 452 kts | 161° |
| 2026-04-26 11:05 | 38.27742 | 7.09072 | 41168 ft | 454 kts | 161° |
| 2026-04-26 11:05 | 38.21875 | 7.12071 | 41170 ft | 455 kts | 161° |
| 2026-04-26 11:06 | 38.16987 | 7.14566 | 41169 ft | 456 kts | 161° |
| 2026-04-26 11:06 | 38.10094 | 7.18078 | 41167 ft | 457 kts | 161° |
| 2026-04-26 11:07 | 38.04182 | 7.21085 | 41165 ft | 458 kts | 162° |
| 2026-04-26 11:07 | 37.98263 | 7.24091 | 41162 ft | 459 kts | 162° |
| 2026-04-26 11:08 | 37.92330 | 7.27098 | 41159 ft | 459 kts | 162° |
| 2026-04-26 11:08 | 37.86427 | 7.30084 | 41156 ft | 460 kts | 162° |
| 2026-04-26 11:09 | 37.80489 | 7.33084 | 41158 ft | 460 kts | 162° |
| 2026-04-26 11:09 | 37.74548 | 7.36079 | 41151 ft | 459 kts | 162° |
| 2026-04-26 11:10 | 37.68613 | 7.39067 | 41152 ft | 459 kts | 162° |
| 2026-04-26 11:10 | 37.62678 | 7.42049 | 41154 ft | 459 kts | 162° |
| 2026-04-26 11:11 | 37.56751 | 7.45022 | 41149 ft | 458 kts | 162° |
| 2026-04-26 11:11 | 37.50826 | 7.47989 | 41147 ft | 458 kts | 163° |
| 2026-04-26 11:12 | 37.44904 | 7.50949 | 41142 ft | 457 kts | 163° |
| 2026-04-26 11:12 | 37.38989 | 7.53901 | 41141 ft | 457 kts | 163° |
| 2026-04-26 11:13 | 37.33116 | 7.56826 | 41140 ft | 457 kts | 163° |
| 2026-04-26 11:13 | 37.27206 | 7.59766 | 41141 ft | 456 kts | 163° |
| 2026-04-26 11:14 | 37.21296 | 7.62700 | 41137 ft | 456 kts | 163° |
| 2026-04-26 11:14 | 37.16391 | 7.65131 | 41137 ft | 456 kts | 163° |
| 2026-04-26 11:15 | 37.09486 | 7.68549 | 41129 ft | 456 kts | 163° |
| 2026-04-26 11:15 | 37.03585 | 7.71464 | 41122 ft | 456 kts | 163° |
| 2026-04-26 11:16 | 36.97674 | 7.74380 | 41110 ft | 457 kts | 163° |
| 2026-04-26 11:16 | 36.91754 | 7.77296 | 41101 ft | 457 kts | 163° |
| 2026-04-26 11:17 | 36.85847 | 7.80258 | 41097 ft | 460 kts | 159° |
| 2026-04-26 11:17 | 36.81323 | 7.83878 | 41101 ft | 470 kts | 144° |
| 2026-04-26 11:18 | 36.75956 | 7.90700 | 41100 ft | 476 kts | 137° |
| 2026-04-26 11:18 | 36.71432 | 7.96739 | 41113 ft | 476 kts | 137° |
| 2026-04-26 11:19 | 36.67606 | 8.01760 | 41122 ft | 477 kts | 138° |
| 2026-04-26 11:19 | 36.63009 | 8.07719 | 41128 ft | 477 kts | 138° |
| 2026-04-26 11:20 | 36.58425 | 8.13635 | 41123 ft | 477 kts | 138° |
| 2026-04-26 11:20 | 36.53815 | 8.19580 | 41130 ft | 477 kts | 138° |
| 2026-04-26 11:21 | 36.49194 | 8.25530 | 41136 ft | 478 kts | 138° |
| 2026-04-26 11:21 | 36.44598 | 8.31440 | 41125 ft | 478 kts | 139° |
| 2026-04-26 11:22 | 36.39881 | 8.37247 | 41134 ft | 475 kts | 146° |
| 2026-04-26 11:22 | 36.34492 | 8.41863 | 41130 ft | 470 kts | 152° |
| 2026-04-26 11:23 | 36.29010 | 8.46276 | 41132 ft | 470 kts | 152° |
| 2026-04-26 11:23 | 36.23538 | 8.50729 | 41121 ft | 471 kts | 152° |
| 2026-04-26 11:24 | 36.18068 | 8.55227 | 41129 ft | 472 kts | 152° |
| 2026-04-26 11:24 | 36.12592 | 8.59738 | 41136 ft | 474 kts | 152° |
| 2026-04-26 11:25 | 36.07087 | 8.64266 | 41133 ft | 475 kts | 152° |
| 2026-04-26 11:25 | 36.01569 | 8.68793 | 41144 ft | 476 kts | 152° |
| 2026-04-26 11:26 | 35.96042 | 8.73320 | 41125 ft | 478 kts | 152° |
| 2026-04-26 11:26 | 35.90529 | 8.77828 | 41140 ft | 478 kts | 152° |
| 2026-04-26 11:27 | 35.84976 | 8.82360 | 41148 ft | 479 kts | 152° |
| 2026-04-26 11:27 | 35.79417 | 8.86890 | 41128 ft | 479 kts | 152° |
| 2026-04-26 11:28 | 35.73858 | 8.91413 | 41144 ft | 478 kts | 152° |
| 2026-04-26 11:28 | 35.68298 | 8.95929 | 41134 ft | 478 kts | 152° |
| 2026-04-26 11:29 | 35.62742 | 9.00433 | 41141 ft | 478 kts | 152° |
| 2026-04-26 11:29 | 35.57225 | 9.04899 | 41134 ft | 477 kts | 152° |
| 2026-04-26 11:30 | 35.52569 | 9.08615 | 41134 ft | 476 kts | 154° |
| 2026-04-26 11:30 | 35.46020 | 9.13558 | 41070 ft | 475 kts | 155° |
| 2026-04-26 11:31 | 35.43170 | 9.15681 | 40517 ft | 481 kts | 155° |
| 2026-04-26 11:31 | 35.40321 | 9.17812 | 39921 ft | 478 kts | 154° |
| 2026-04-26 11:31 | 35.37487 | 9.19939 | 39302 ft | 477 kts | 154° |
| 2026-04-26 11:31 | 35.34652 | 9.22071 | 38605 ft | 477 kts | 154° |
| 2026-04-26 11:32 | 35.31826 | 9.24199 | 37831 ft | 476 kts | 154° |
| 2026-04-26 11:32 | 35.29015 | 9.26317 | 37131 ft | 473 kts | 154° |
| 2026-04-26 11:32 | 35.26210 | 9.28429 | 36449 ft | 471 kts | 154° |
| 2026-04-26 11:32 | 35.23420 | 9.30528 | 35724 ft | 471 kts | 154° |
| 2026-04-26 11:33 | 35.20658 | 9.32600 | 34957 ft | 471 kts | 154° |
| 2026-04-26 11:33 | 35.17860 | 9.34698 | 34173 ft | 472 kts | 154° |
| 2026-04-26 11:33 | 35.15052 | 9.36801 | 33240 ft | 474 kts | 154° |
| 2026-04-26 11:33 | 35.12241 | 9.38906 | 32545 ft | 471 kts | 154° |
| 2026-04-26 11:34 | 35.09465 | 9.40986 | 31932 ft | 466 kts | 154° |
| 2026-04-26 11:34 | 35.06719 | 9.43043 | 31326 ft | 461 kts | 154° |
| 2026-04-26 11:34 | 35.03994 | 9.45081 | 30724 ft | 457 kts | 154° |
| 2026-04-26 11:34 | 35.01295 | 9.47097 | 30136 ft | 453 kts | 153° |
| 2026-04-26 11:35 | 34.98613 | 9.49098 | 29452 ft | 449 kts | 153° |
| 2026-04-26 11:35 | 34.95959 | 9.51076 | 28826 ft | 444 kts | 153° |
| 2026-04-26 11:35 | 34.93340 | 9.53027 | 28214 ft | 439 kts | 153° |
| 2026-04-26 11:35 | 34.90744 | 9.54959 | 27605 ft | 434 kts | 153° |
| 2026-04-26 11:36 | 34.88183 | 9.56864 | 27012 ft | 430 kts | 153° |
| 2026-04-26 11:36 | 34.85640 | 9.58753 | 26423 ft | 426 kts | 153° |
| 2026-04-26 11:36 | 34.83153 | 9.60600 | 25848 ft | 422 kts | 153° |
| 2026-04-26 11:36 | 34.80653 | 9.62454 | 25278 ft | 419 kts | 152° |
| 2026-04-26 11:37 | 34.78175 | 9.64291 | 24695 ft | 416 kts | 152° |
| 2026-04-26 11:37 | 34.75715 | 9.66113 | 24126 ft | 412 kts | 152° |
| 2026-04-26 11:37 | 34.73274 | 9.67921 | 23511 ft | 410 kts | 152° |
| 2026-04-26 11:37 | 34.70847 | 9.69717 | 22864 ft | 407 kts | 152° |
| 2026-04-26 11:38 | 34.68438 | 9.71499 | 22260 ft | 402 kts | 152° |
| 2026-04-26 11:38 | 34.66057 | 9.73260 | 21698 ft | 398 kts | 152° |
| 2026-04-26 11:38 | 34.63701 | 9.75000 | 21135 ft | 394 kts | 152° |
| 2026-04-26 11:38 | 34.61364 | 9.76725 | 20580 ft | 391 kts | 152° |
| 2026-04-26 11:39 | 34.59056 | 9.78427 | 20041 ft | 387 kts | 152° |
| 2026-04-26 11:39 | 34.56755 | 9.80123 | 19489 ft | 384 kts | 152° |
| 2026-04-26 11:39 | 34.54477 | 9.81800 | 18958 ft | 382 kts | 152° |
| 2026-04-26 11:39 | 34.52211 | 9.83468 | 18419 ft | 380 kts | 152° |
| 2026-04-26 11:40 | 34.49984 | 9.85106 | 17791 ft | 378 kts | 152° |
| 2026-04-26 11:40 | 34.47744 | 9.86754 | 17241 ft | 375 kts | 152° |
| 2026-04-26 11:40 | 34.45516 | 9.88392 | 16682 ft | 373 kts | 153° |
| 2026-04-26 11:40 | 34.43309 | 9.90013 | 16155 ft | 370 kts | 153° |
| 2026-04-26 11:41 | 34.41183 | 9.91768 | 15621 ft | 371 kts | 144° |
| 2026-04-26 11:42 | 34.30183 | 10.08923 | 11839 ft | 361 kts | 129° |
| 2026-04-26 11:43 | 34.28708 | 10.11310 | 11329 ft | 357 kts | 128° |
| 2026-04-26 11:43 | 34.27207 | 10.13745 | 10758 ft | 355 kts | 128° |
| 2026-04-26 11:43 | 34.25774 | 10.16073 | 10538 ft | 343 kts | 128° |
| 2026-04-26 11:43 | 34.24377 | 10.18345 | 10384 ft | 329 kts | 128° |
| 2026-04-26 11:44 | 34.23038 | 10.20520 | 10241 ft | 317 kts | 128° |
| 2026-04-26 11:44 | 34.21739 | 10.22627 | 10017 ft | 309 kts | 128° |
| 2026-04-26 11:44 | 34.20499 | 10.24639 | 10021 ft | 288 kts | 128° |
| 2026-04-26 11:44 | 34.19340 | 10.26518 | 9943 ft | 269 kts | 128° |
| 2026-04-26 11:45 | 34.18265 | 10.28261 | 9808 ft | 251 kts | 128° |
| 2026-04-26 11:45 | 34.17210 | 10.29967 | 9181 ft | 263 kts | 127° |
| 2026-04-26 11:45 | 34.16091 | 10.31776 | 8700 ft | 271 kts | 127° |
| 2026-04-26 11:45 | 34.14967 | 10.33594 | 8424 ft | 270 kts | 127° |
| 2026-04-26 11:46 | 34.13843 | 10.35409 | 8117 ft | 270 kts | 127° |
| 2026-04-26 11:46 | 34.12725 | 10.37215 | 7846 ft | 268 kts | 126° |
| 2026-04-26 11:46 | 34.11610 | 10.39006 | 7581 ft | 266 kts | 126° |
| 2026-04-26 11:46 | 34.10498 | 10.40786 | 7302 ft | 265 kts | 126° |
| 2026-04-26 11:47 | 34.09394 | 10.42554 | 7041 ft | 263 kts | 126° |
| 2026-04-26 11:47 | 34.08289 | 10.44321 | 6786 ft | 262 kts | 126° |
| 2026-04-26 11:47 | 34.07204 | 10.46057 | 6573 ft | 258 kts | 125° |
| 2026-04-26 11:47 | 34.06126 | 10.47784 | 6248 ft | 258 kts | 125° |
| 2026-04-26 11:48 | 34.05048 | 10.49509 | 5986 ft | 256 kts | 125° |
| 2026-04-26 11:48 | 34.03983 | 10.51212 | 5703 ft | 255 kts | 126° |
| 2026-04-26 11:48 | 34.02926 | 10.52902 | 5502 ft | 250 kts | 126° |
| 2026-04-26 11:48 | 34.01879 | 10.54572 | 5219 ft | 249 kts | 126° |
| 2026-04-26 11:49 | 34.00837 | 10.56234 | 4984 ft | 247 kts | 127° |
| 2026-04-26 11:49 | 33.99573 | 10.57597 | 4702 ft | 246 kts | 152° |
| 2026-04-26 11:49 | 33.97935 | 10.58108 | 4440 ft | 245 kts | 180° |
| 2026-04-26 11:49 | 33.96284 | 10.57709 | 4223 ft | 241 kts | 200° |
| 2026-04-26 11:50 | 33.94770 | 10.56907 | 4106 ft | 234 kts | 203° |
| 2026-04-26 11:50 | 33.93307 | 10.56194 | 3956 ft | 227 kts | 198° |
| 2026-04-26 11:50 | 33.91842 | 10.55674 | 3833 ft | 210 kts | 192° |
| 2026-04-26 11:50 | 33.90467 | 10.55378 | 3717 ft | 192 kts | 184° |
| 2026-04-26 11:51 | 33.89191 | 10.55254 | 3604 ft | 176 kts | 178° |
| 2026-04-26 11:51 | 33.88027 | 10.55627 | 3110 ft | 179 kts | 145° |
| 2026-04-26 11:51 | 33.87267 | 10.56781 | 2554 ft | 181 kts | 102° |
| 2026-04-26 11:51 | 33.87169 | 10.58296 | 2050 ft | 184 kts | 93° |
| 2026-04-26 11:52 | 33.87137 | 10.59823 | 1750 ft | 177 kts | 90° |
| 2026-04-26 11:52 | 33.87146 | 10.60793 | 1646 ft | 167 kts | 89° |
| 2026-04-26 11:52 | 33.87182 | 10.62516 | 1597 ft | 144 kts | 89° |
| 2026-04-26 11:52 | 33.87209 | 10.63703 | 1580 ft | 140 kts | 89° |
| 2026-04-26 11:53 | 33.87235 | 10.64853 | 1605 ft | 138 kts | 89° |
| 2026-04-26 11:53 | 33.87263 | 10.66022 | 1613 ft | 141 kts | 89° |
| 2026-04-26 11:53 | 33.87291 | 10.67209 | 1455 ft | 141 kts | 89° |
| 2026-04-26 11:54 | 33.87344 | 10.69478 | 1084 ft | 124 kts | 87° |
| 2026-04-26 11:54 | 33.87369 | 10.70458 | 938 ft | 113 kts | 89° |
| 2026-04-26 11:54 | 33.87390 | 10.71395 | 803 ft | 111 kts | 88° |
| 2026-04-26 11:54 | 33.87413 | 10.72324 | 646 ft | 110 kts | 86° |
| 2026-04-26 11:55 | 33.87435 | 10.73225 | 514 ft | 107 kts | 87° |
| 2026-04-26 11:55 | 33.87456 | 10.74109 | 357 ft | 107 kts | 85° |
| 2026-04-26 11:55 | 33.87491 | 10.74998 | 225 ft | 107 kts | 88° |
| 2026-04-26 11:55 | 33.87502 | 10.75892 | 92 ft | 106 kts | 86° |
| 2026-04-26 11:56 | 33.87521 | 10.76755 | 28 ft | 94 kts | 86° |
| 2026-04-26 11:56 | 33.87537 | 10.77405 | 19 ft | 58 kts | 88° |
| 2026-04-26 11:56 | 33.87537 | 10.77680 | 22 ft | 15 kts | 103° |
| 2026-04-26 11:56 | 33.87522 | 10.77708 | 22 ft | 4 kts | 140° |
| 2026-04-26 11:57 | 33.87504 | 10.77725 | 21 ft | 0 kts | 149° |
| 2026-04-26 11:57 | 33.87495 | 10.77730 | 21 ft | 2 kts | 162° |
| 2026-04-26 11:57 | 33.87474 | 10.77727 | 21 ft | 3 kts | 186° |
| 2026-04-26 11:57 | 33.87451 | 10.77724 | 24 ft | 3 kts | 185° |
| 2026-04-26 11:58 | 33.87428 | 10.77725 | 25 ft | 4 kts | 179° |
| 2026-04-26 11:58 | 33.87403 | 10.77712 | 28 ft | 5 kts | 222° |
| 2026-04-26 11:58 | 33.87386 | 10.77670 | 30 ft | 7 kts | 257° |
| 2026-04-26 11:58 | 33.87380 | 10.77605 | 25 ft | 9 kts | 264° |
| 2026-04-26 11:59 | 33.87373 | 10.77516 | 30 ft | 12 kts | 264° |
| 2026-04-26 11:59 | 33.87379 | 10.77416 | 26 ft | 13 kts | 270° |
| 2026-04-26 11:59 | 33.87378 | 10.77366 | 26 ft | 0 kts | 263° |
| 2026-04-26 12:00 | 33.87377 | 10.77358 | 26 ft | 2 kts | 261° |
| 2026-04-26 12:00 | 33.87367 | 10.77349 | 29 ft | 2 kts | 199° |
| 2026-04-26 12:00 | 33.87350 | 10.77351 | 28 ft | 3 kts | 173° |
| 2026-04-26 12:00 | 33.87332 | 10.77367 | 27 ft | 4 kts | 134° |
| 2026-04-26 12:01 | 33.87310 | 10.77395 | 26 ft | 6 kts | 134° |
| 2026-04-26 12:01 | 33.87293 | 10.77418 | 27 ft | 2 kts | 131° |
| 2026-04-26 12:01 | 33.87284 | 10.77429 | 26 ft | 1 kts | 133° |
| 2026-04-26 12:01 | 33.87283 | 10.77430 | 26 ft | 0 kts | 133° |